Terminal Aerodrome Forecast
Issued by NWS Quad Cities IA IL

Home | Current Version | Previous Version | Text Only | Print | Product List | Glossary On
Versions: 1 2 3 4 5 6 7 8 9 10 11 12 13 14 15
000
FTUS43 KDVN 010500
TAFMLI
TAF
KMLI 010520Z 0106/0206 10008KT P6SM FEW250
     FM011500 13008KT P6SM VCSH SCT040 OVC070 PROB30 0117/0122 3SM
      -SHRA BKN035 OVC050
     FM012300 14007KT 3SM -SHRA BKN035 OVC050=

USA.gov is the U.S. government's official web portal to all federal, state and local government web resources and services.